sensor_id;sensor_type;location;lat;lon;timestamp;temperature;humidity
13848;DHT22;6994;49.752;6.094;2023-08-01T00:01:09;17.50;99.90
13848;DHT22;6994;49.752;6.094;2023-08-01T00:03:37;17.50;99.90
13848;DHT22;6994;49.752;6.094;2023-08-01T00:06:04;17.50;99.90
13848;DHT22;6994;49.752;6.094;2023-08-01T00:08:31;17.60;99.90
13848;DHT22;6994;49.752;6.094;2023-08-01T00:10:58;17.70;99.90
13848;DHT22;6994;49.752;6.094;2023-08-01T00:13:26;17.70;99.90
13848;DHT22;6994;49.752;6.094;2023-08-01T00:15:53;17.60;99.90
13848;DHT22;6994;49.752;6.094;2023-08-01T00:18:20;17.60;99.90
13848;DHT22;6994;49.752;6.094;2023-08-01T00:20:48;17.50;99.90
13848;DHT22;6994;49.752;6.094;2023-08-01T00:23:16;17.50;99.90
13848;DHT22;6994;49.752;6.094;2023-08-01T00:25:44;17.40;99.90
13848;DHT22;6994;49.752;6.094;2023-08-01T00:28:11;17.40;99.90
13848;DHT22;6994;49.752;6.094;2023-08-01T00:30:38;17.40;99.90
13848;DHT22;6994;49.752;6.094;2023-08-01T00:33:05;17.40;99.90
13848;DHT22;6994;49.752;6.094;2023-08-01T00:35:33;17.50;99.90
13848;DHT22;6994;49.752;6.094;2023-08-01T00:38:00;17.60;99.90
13848;DHT22;6994;49.752;6.094;2023-08-01T00:40:33;17.60;99.90
13848;DHT22;6994;49.752;6.094;2023-08-01T00:43:00;17.50;99.90
13848;DHT22;6994;49.752;6.094;2023-08-01T00:45:27;17.50;99.90
13848;DHT22;6994;49.752;6.094;2023-08-01T00:47:55;17.50;99.90
13848;DHT22;6994;49.752;6.094;2023-08-01T00:50:22;17.50;99.90
13848;DHT22;6994;49.752;6.094;2023-08-01T00:52:50;17.50;99.90
13848;DHT22;6994;49.752;6.094;2023-08-01T00:55:16;17.50;99.90
13848;DHT22;6994;49.752;6.094;2023-08-01T00:57:44;17.50;99.90
13848;DHT22;6994;49.752;6.094;2023-08-01T01:00:12;17.60;99.90
13848;DHT22;6994;49.752;6.094;2023-08-01T01:02:40;17.60;99.90
13848;DHT22;6994;49.752;6.094;2023-08-01T01:05:07;17.70;99.90
13848;DHT22;6994;49.752;6.094;2023-08-01T01:07:34;17.70;99.90
13848;DHT22;6994;49.752;6.094;2023-08-01T01:10:01;17.90;99.90
13848;DHT22;6994;49.752;6.094;2023-08-01T01:12:28;17.90;99.90
13848;DHT22;6994;49.752;6.094;2023-08-01T01:14:56;17.80;99.90
13848;DHT22;6994;49.752;6.094;2023-08-01T01:17:23;17.80;99.90
13848;DHT22;6994;49.752;6.094;2023-08-01T01:19:51;17.70;99.90
13848;DHT22;6994;49.752;6.094;2023-08-01T01:22:19;17.70;99.90
13848;DHT22;6994;49.752;6.094;2023-08-01T01:24:46;17.70;99.90
13848;DHT22;6994;49.752;6.094;2023-08-01T01:27:13;17.70;99.90
13848;DHT22;6994;49.752;6.094;2023-08-01T01:29:40;17.60;99.90
13848;DHT22;6994;49.752;6.094;2023-08-01T01:32:08;17.60;99.90
13848;DHT22;6994;49.752;6.094;2023-08-01T01:34:35;17.60;99.90
13848;DHT22;6994;49.752;6.094;2023-08-01T01:37:02;17.60;99.90
13848;DHT22;6994;49.752;6.094;2023-08-01T01:39:29;17.60;99.90
13848;DHT22;6994;49.752;6.094;2023-08-01T01:41:56;17.50;99.90
13848;DHT22;6994;49.752;6.094;2023-08-01T01:44:24;17.50;99.90
13848;DHT22;6994;49.752;6.094;2023-08-01T01:46:51;17.50;99.90
13848;DHT22;6994;49.752;6.094;2023-08-01T01:49:18;17.50;99.90
13848;DHT22;6994;49.752;6.094;2023-08-01T01:51:46;17.50;99.90
13848;DHT22;6994;49.752;6.094;2023-08-01T01:54:14;17.50;99.90
13848;DHT22;6994;49.752;6.094;2023-08-01T01:56:42;17.50;99.90
13848;DHT22;6994;49.752;6.094;2023-08-01T01:59:10;17.50;99.90
13848;DHT22;6994;49.752;6.094;2023-08-01T02:01:38;17.50;99.90
13848;DHT22;6994;49.752;6.094;2023-08-01T02:04:06;17.40;99.90
13848;DHT22;6994;49.752;6.094;2023-08-01T02:06:33;17.50;99.90
13848;DHT22;6994;49.752;6.094;2023-08-01T02:09:00;17.40;99.90
13848;DHT22;6994;49.752;6.094;2023-08-01T02:11:27;17.40;99.90
13848;DHT22;6994;49.752;6.094;2023-08-01T02:13:55;17.40;99.90
13848;DHT22;6994;49.752;6.094;2023-08-01T02:16:22;17.40;99.90
13848;DHT22;6994;49.752;6.094;2023-08-01T02:18:49;17.40;99.90
13848;DHT22;6994;49.752;6.094;2023-08-01T02:21:16;17.40;99.90
13848;DHT22;6994;49.752;6.094;2023-08-01T02:23:43;17.40;99.90
13848;DHT22;6994;49.752;6.094;2023-08-01T02:26:11;17.40;99.90
13848;DHT22;6994;49.752;6.094;2023-08-01T02:28:38;17.40;99.90
13848;DHT22;6994;49.752;6.094;2023-08-01T02:31:05;17.40;99.90
13848;DHT22;6994;49.752;6.094;2023-08-01T02:33:33;17.40;99.90
13848;DHT22;6994;49.752;6.094;2023-08-01T02:36:00;17.40;99.90
13848;DHT22;6994;49.752;6.094;2023-08-01T02:38:27;17.40;99.90
13848;DHT22;6994;49.752;6.094;2023-08-01T02:40:55;17.40;99.90
13848;DHT22;6994;49.752;6.094;2023-08-01T02:43:22;17.40;99.90
13848;DHT22;6994;49.752;6.094;2023-08-01T02:45:49;17.40;99.90
13848;DHT22;6994;49.752;6.094;2023-08-01T02:48:16;17.50;99.90
13848;DHT22;6994;49.752;6.094;2023-08-01T02:50:43;17.60;99.90
13848;DHT22;6994;49.752;6.094;2023-08-01T02:53:11;17.70;99.90
13848;DHT22;6994;49.752;6.094;2023-08-01T02:55:38;17.80;99.90
13848;DHT22;6994;49.752;6.094;2023-08-01T02:58:05;17.70;99.90
13848;DHT22;6994;49.752;6.094;2023-08-01T03:00:32;17.70;99.90
13848;DHT22;6994;49.752;6.094;2023-08-01T03:03:00;17.60;99.90
13848;DHT22;6994;49.752;6.094;2023-08-01T03:05:28;17.50;99.90
13848;DHT22;6994;49.752;6.094;2023-08-01T03:07:55;17.50;99.90
13848;DHT22;6994;49.752;6.094;2023-08-01T03:10:23;17.50;99.90
13848;DHT22;6994;49.752;6.094;2023-08-01T03:12:50;17.50;99.90
13848;DHT22;6994;49.752;6.094;2023-08-01T03:15:17;17.60;99.90
13848;DHT22;6994;49.752;6.094;2023-08-01T03:17:44;17.70;99.90
13848;DHT22;6994;49.752;6.094;2023-08-01T03:20:11;17.80;99.90
13848;DHT22;6994;49.752;6.094;2023-08-01T03:22:39;17.80;99.90
13848;DHT22;6994;49.752;6.094;2023-08-01T03:25:07;17.90;99.90
13848;DHT22;6994;49.752;6.094;2023-08-01T03:27:36;17.90;99.90
13848;DHT22;6994;49.752;6.094;2023-08-01T03:30:04;17.80;99.90
13848;DHT22;6994;49.752;6.094;2023-08-01T03:32:31;17.70;99.90
13848;DHT22;6994;49.752;6.094;2023-08-01T03:34:58;17.60;99.90
13848;DHT22;6994;49.752;6.094;2023-08-01T03:37:25;17.60;99.90
13848;DHT22;6994;49.752;6.094;2023-08-01T03:39:53;17.50;99.90
13848;DHT22;6994;49.752;6.094;2023-08-01T03:42:20;17.60;99.90
13848;DHT22;6994;49.752;6.094;2023-08-01T03:44:47;17.70;99.90
13848;DHT22;6994;49.752;6.094;2023-08-01T03:47:14;17.60;99.90
13848;DHT22;6994;49.752;6.094;2023-08-01T03:49:41;17.60;99.90
13848;DHT22;6994;49.752;6.094;2023-08-01T03:52:09;17.50;99.90
13848;DHT22;6994;49.752;6.094;2023-08-01T03:54:37;17.50;99.90
13848;DHT22;6994;49.752;6.094;2023-08-01T03:57:05;17.50;99.90
13848;DHT22;6994;49.752;6.094;2023-08-01T03:59:33;17.40;99.90
13848;DHT22;6994;49.752;6.094;2023-08-01T04:02:00;17.50;99.90
13848;DHT22;6994;49.752;6.094;2023-08-01T04:04:27;17.40;99.90
13848;DHT22;6994;49.752;6.094;2023-08-01T04:06:54;17.40;99.90
13848;DHT22;6994;49.752;6.094;2023-08-01T04:09:21;17.40;99.90
13848;DHT22;6994;49.752;6.094;2023-08-01T04:11:49;17.40;99.90
13848;DHT22;6994;49.752;6.094;2023-08-01T04:14:16;17.40;99.90
13848;DHT22;6994;49.752;6.094;2023-08-01T04:16:43;17.40;99.90
13848;DHT22;6994;49.752;6.094;2023-08-01T04:19:10;17.40;99.90
13848;DHT22;6994;49.752;6.094;2023-08-01T04:21:38;17.30;99.90
13848;DHT22;6994;49.752;6.094;2023-08-01T04:24:06;17.30;99.90
13848;DHT22;6994;49.752;6.094;2023-08-01T04:26:33;17.30;99.90
13848;DHT22;6994;49.752;6.094;2023-08-01T04:29:01;17.30;99.90
13848;DHT22;6994;49.752;6.094;2023-08-01T04:31:28;17.30;99.90
13848;DHT22;6994;49.752;6.094;2023-08-01T04:33:55;17.50;99.90
13848;DHT22;6994;49.752;6.094;2023-08-01T04:36:22;17.50;99.90
13848;DHT22;6994;49.752;6.094;2023-08-01T04:38:49;17.50;99.90
13848;DHT22;6994;49.752;6.094;2023-08-01T04:41:17;17.50;99.90
13848;DHT22;6994;49.752;6.094;2023-08-01T04:43:44;17.60;99.90
13848;DHT22;6994;49.752;6.094;2023-08-01T04:46:11;17.60;99.90
13848;DHT22;6994;49.752;6.094;2023-08-01T04:48:38;17.60;99.90
13848;DHT22;6994;49.752;6.094;2023-08-01T04:51:05;17.50;99.90
13848;DHT22;6994;49.752;6.094;2023-08-01T04:53:33;17.40;99.90
13848;DHT22;6994;49.752;6.094;2023-08-01T04:56:01;17.30;99.90
13848;DHT22;6994;49.752;6.094;2023-08-01T04:58:28;17.30;99.90
13848;DHT22;6994;49.752;6.094;2023-08-01T05:00:56;17.30;99.90
13848;DHT22;6994;49.752;6.094;2023-08-01T05:03:23;17.30;99.90
13848;DHT22;6994;49.752;6.094;2023-08-01T05:05:50;17.20;99.90
13848;DHT22;6994;49.752;6.094;2023-08-01T05:08:17;17.10;99.90
13848;DHT22;6994;49.752;6.094;2023-08-01T05:10:45;17.10;99.90
13848;DHT22;6994;49.752;6.094;2023-08-01T05:13:12;17.10;99.90
13848;DHT22;6994;49.752;6.094;2023-08-01T05:15:39;16.90;99.90
13848;DHT22;6994;49.752;6.094;2023-08-01T05:18:06;16.80;99.90
13848;DHT22;6994;49.752;6.094;2023-08-01T05:20:33;16.60;99.90
13848;DHT22;6994;49.752;6.094;2023-08-01T05:23:01;16.50;99.90
13848;DHT22;6994;49.752;6.094;2023-08-01T05:25:28;16.40;99.90
13848;DHT22;6994;49.752;6.094;2023-08-01T05:27:55;16.30;99.90
13848;DHT22;6994;49.752;6.094;2023-08-01T05:30:24;16.20;99.90
13848;DHT22;6994;49.752;6.094;2023-08-01T05:32:51;16.20;99.90
13848;DHT22;6994;49.752;6.094;2023-08-01T05:35:19;16.10;99.90
13848;DHT22;6994;49.752;6.094;2023-08-01T05:37:47;16.10;99.90
13848;DHT22;6994;49.752;6.094;2023-08-01T05:40:14;16.10;99.90
13848;DHT22;6994;49.752;6.094;2023-08-01T05:42:41;16.10;99.90
13848;DHT22;6994;49.752;6.094;2023-08-01T05:45:08;16.10;99.90
13848;DHT22;6994;49.752;6.094;2023-08-01T05:47:36;16.10;99.90
13848;DHT22;6994;49.752;6.094;2023-08-01T05:50:03;16.10;99.90
13848;DHT22;6994;49.752;6.094;2023-08-01T05:52:30;16.10;99.90
13848;DHT22;6994;49.752;6.094;2023-08-01T05:54:57;16.10;99.90
13848;DHT22;6994;49.752;6.094;2023-08-01T05:57:25;16.00;99.90
13848;DHT22;6994;49.752;6.094;2023-08-01T05:59:53;16.00;99.90
13848;DHT22;6994;49.752;6.094;2023-08-01T06:02:21;16.00;99.90
13848;DHT22;6994;49.752;6.094;2023-08-01T06:04:49;15.90;99.90
13848;DHT22;6994;49.752;6.094;2023-08-01T06:07:16;15.90;99.90
13848;DHT22;6994;49.752;6.094;2023-08-01T06:09:44;15.90;99.90
13848;DHT22;6994;49.752;6.094;2023-08-01T06:12:11;15.90;99.90
13848;DHT22;6994;49.752;6.094;2023-08-01T06:14:38;16.00;99.90
13848;DHT22;6994;49.752;6.094;2023-08-01T06:17:05;16.00;99.90
13848;DHT22;6994;49.752;6.094;2023-08-01T06:19:32;16.20;99.90
13848;DHT22;6994;49.752;6.094;2023-08-01T06:22:00;16.30;99.90
13848;DHT22;6994;49.752;6.094;2023-08-01T06:24:27;16.30;99.90
13848;DHT22;6994;49.752;6.094;2023-08-01T06:26:54;16.30;99.90
13848;DHT22;6994;49.752;6.094;2023-08-01T06:29:22;16.40;99.90
13848;DHT22;6994;49.752;6.094;2023-08-01T06:31:50;16.40;99.90
13848;DHT22;6994;49.752;6.094;2023-08-01T06:34:18;16.40;99.90
13848;DHT22;6994;49.752;6.094;2023-08-01T06:36:46;16.30;99.90
13848;DHT22;6994;49.752;6.094;2023-08-01T06:39:13;16.30;99.90
13848;DHT22;6994;49.752;6.094;2023-08-01T06:41:40;16.40;99.90
13848;DHT22;6994;49.752;6.094;2023-08-01T06:44:08;16.40;99.90
13848;DHT22;6994;49.752;6.094;2023-08-01T06:46:35;16.40;99.90
13848;DHT22;6994;49.752;6.094;2023-08-01T06:49:02;16.50;99.90
13848;DHT22;6994;49.752;6.094;2023-08-01T06:51:29;16.60;99.90
13848;DHT22;6994;49.752;6.094;2023-08-01T06:53:56;16.70;99.90
13848;DHT22;6994;49.752;6.094;2023-08-01T06:56:24;17.10;99.90
13848;DHT22;6994;49.752;6.094;2023-08-01T06:58:51;17.30;99.90
13848;DHT22;6994;49.752;6.094;2023-08-01T07:01:18;17.40;99.90
13848;DHT22;6994;49.752;6.094;2023-08-01T07:03:45;17.50;99.90
13848;DHT22;6994;49.752;6.094;2023-08-01T07:06:13;17.50;99.90
13848;DHT22;6994;49.752;6.094;2023-08-01T07:08:41;17.60;99.90
13848;DHT22;6994;49.752;6.094;2023-08-01T07:11:08;17.60;99.90
13848;DHT22;6994;49.752;6.094;2023-08-01T07:13:36;17.50;99.90
13848;DHT22;6994;49.752;6.094;2023-08-01T07:16:03;17.40;99.90
13848;DHT22;6994;49.752;6.094;2023-08-01T07:18:30;17.20;99.90
13848;DHT22;6994;49.752;6.094;2023-08-01T07:21:03;17.10;99.90
13848;DHT22;6994;49.752;6.094;2023-08-01T07:23:30;16.90;99.90
13848;DHT22;6994;49.752;6.094;2023-08-01T07:25:57;16.70;99.90
13848;DHT22;6994;49.752;6.094;2023-08-01T07:28:24;16.60;99.90
13848;DHT22;6994;49.752;6.094;2023-08-01T07:31:05;16.60;99.90
13848;DHT22;6994;49.752;6.094;2023-08-01T07:33:31;16.50;99.90
13848;DHT22;6994;49.752;6.094;2023-08-01T07:35:59;16.40;99.90
13848;DHT22;6994;49.752;6.094;2023-08-01T07:38:27;16.40;99.90
13848;DHT22;6994;49.752;6.094;2023-08-01T07:40:55;16.40;99.90
13848;DHT22;6994;49.752;6.094;2023-08-01T07:43:21;16.50;99.90
13848;DHT22;6994;49.752;6.094;2023-08-01T07:45:48;16.70;99.90
13848;DHT22;6994;49.752;6.094;2023-08-01T07:48:16;16.80;99.90
13848;DHT22;6994;49.752;6.094;2023-08-01T07:50:43;16.80;99.90
13848;DHT22;6994;49.752;6.094;2023-08-01T07:53:10;16.90;99.90
13848;DHT22;6994;49.752;6.094;2023-08-01T07:55:37;16.90;99.90
13848;DHT22;6994;49.752;6.094;2023-08-01T07:58:05;17.00;99.90
13848;DHT22;6994;49.752;6.094;2023-08-01T08:00:34;17.00;99.90
13848;DHT22;6994;49.752;6.094;2023-08-01T08:03:00;17.20;99.90
13848;DHT22;6994;49.752;6.094;2023-08-01T08:05:28;17.20;99.90
13848;DHT22;6994;49.752;6.094;2023-08-01T08:07:55;17.20;99.90
13848;DHT22;6994;49.752;6.094;2023-08-01T08:10:22;17.20;99.90
13848;DHT22;6994;49.752;6.094;2023-08-01T08:12:49;17.30;99.90
13848;DHT22;6994;49.752;6.094;2023-08-01T08:15:17;17.30;99.90
13848;DHT22;6994;49.752;6.094;2023-08-01T08:17:44;17.40;99.90
13848;DHT22;6994;49.752;6.094;2023-08-01T08:20:11;17.50;99.90
13848;DHT22;6994;49.752;6.094;2023-08-01T08:22:38;17.60;99.90
13848;DHT22;6994;49.752;6.094;2023-08-01T08:25:06;17.60;99.90
13848;DHT22;6994;49.752;6.094;2023-08-01T08:27:34;17.70;99.90
13848;DHT22;6994;49.752;6.094;2023-08-01T08:30:01;17.80;99.90
13848;DHT22;6994;49.752;6.094;2023-08-01T08:32:28;17.90;99.90
13848;DHT22;6994;49.752;6.094;2023-08-01T08:34:55;18.00;99.90
13848;DHT22;6994;49.752;6.094;2023-08-01T08:37:22;18.40;99.90
13848;DHT22;6994;49.752;6.094;2023-08-01T08:39:50;18.40;99.90
13848;DHT22;6994;49.752;6.094;2023-08-01T08:42:19;18.40;99.90
13848;DHT22;6994;49.752;6.094;2023-08-01T08:44:47;18.20;99.90
13848;DHT22;6994;49.752;6.094;2023-08-01T08:47:14;18.20;99.90
13848;DHT22;6994;49.752;6.094;2023-08-01T08:49:41;18.00;99.90
13848;DHT22;6994;49.752;6.094;2023-08-01T08:52:09;17.80;99.90
13848;DHT22;6994;49.752;6.094;2023-08-01T08:54:35;17.70;99.90
13848;DHT22;6994;49.752;6.094;2023-08-01T08:57:04;17.70;99.90
13848;DHT22;6994;49.752;6.094;2023-08-01T08:59:30;17.70;99.90
13848;DHT22;6994;49.752;6.094;2023-08-01T09:01:57;17.80;99.90
13848;DHT22;6994;49.752;6.094;2023-08-01T09:04:24;17.90;99.90
13848;DHT22;6994;49.752;6.094;2023-08-01T09:06:52;18.00;99.90
13848;DHT22;6994;49.752;6.094;2023-08-01T09:09:19;18.20;99.90
13848;DHT22;6994;49.752;6.094;2023-08-01T09:11:46;18.40;99.90
13848;DHT22;6994;49.752;6.094;2023-08-01T09:14:13;18.70;99.90
13848;DHT22;6994;49.752;6.094;2023-08-01T09:16:41;18.90;99.90
13848;DHT22;6994;49.752;6.094;2023-08-01T09:19:07;19.30;99.90
13848;DHT22;6994;49.752;6.094;2023-08-01T09:21:35;19.50;99.90
13848;DHT22;6994;49.752;6.094;2023-08-01T09:24:13;19.60;99.90
13848;DHT22;6994;49.752;6.094;2023-08-01T09:26:36;19.70;99.90
13848;DHT22;6994;49.752;6.094;2023-08-01T09:29:03;19.70;99.90
13848;DHT22;6994;49.752;6.094;2023-08-01T09:31:31;19.80;99.90
13848;DHT22;6994;49.752;6.094;2023-08-01T09:33:57;19.70;99.90
13848;DHT22;6994;49.752;6.094;2023-08-01T09:36:24;19.90;99.90
13848;DHT22;6994;49.752;6.094;2023-08-01T09:38:51;19.90;99.90
13848;DHT22;6994;49.752;6.094;2023-08-01T09:41:19;19.90;99.90
13848;DHT22;6994;49.752;6.094;2023-08-01T09:43:46;20.00;99.90
13848;DHT22;6994;49.752;6.094;2023-08-01T09:46:14;20.30;99.90
13848;DHT22;6994;49.752;6.094;2023-08-01T09:48:42;20.40;99.90
13848;DHT22;6994;49.752;6.094;2023-08-01T09:51:12;20.40;99.90
13848;DHT22;6994;49.752;6.094;2023-08-01T09:53:52;20.30;99.90
13848;DHT22;6994;49.752;6.094;2023-08-01T09:56:25;20.30;99.90
13848;DHT22;6994;49.752;6.094;2023-08-01T09:58:52;20.20;99.90
13848;DHT22;6994;49.752;6.094;2023-08-01T10:01:20;20.10;99.90
13848;DHT22;6994;49.752;6.094;2023-08-01T10:03:47;20.10;99.90
13848;DHT22;6994;49.752;6.094;2023-08-01T10:06:19;20.20;99.90
13848;DHT22;6994;49.752;6.094;2023-08-01T10:08:49;20.30;99.90
13848;DHT22;6994;49.752;6.094;2023-08-01T10:11:17;20.60;99.90
13848;DHT22;6994;49.752;6.094;2023-08-01T10:13:45;20.70;99.90
13848;DHT22;6994;49.752;6.094;2023-08-01T10:16:13;20.80;99.90
13848;DHT22;6994;49.752;6.094;2023-08-01T10:18:40;20.70;99.90
13848;DHT22;6994;49.752;6.094;2023-08-01T10:21:07;20.80;99.90
13848;DHT22;6994;49.752;6.094;2023-08-01T10:23:34;20.70;99.90
13848;DHT22;6994;49.752;6.094;2023-08-01T10:26:03;20.60;99.90
13848;DHT22;6994;49.752;6.094;2023-08-01T10:28:36;20.60;99.90
13848;DHT22;6994;49.752;6.094;2023-08-01T10:31:14;20.80;99.90
13848;DHT22;6994;49.752;6.094;2023-08-01T10:33:41;20.80;99.90
13848;DHT22;6994;49.752;6.094;2023-08-01T10:36:23;20.90;99.90
13848;DHT22;6994;49.752;6.094;2023-08-01T10:38:54;20.80;99.90
13848;DHT22;6994;49.752;6.094;2023-08-01T10:41:21;20.80;99.90
13848;DHT22;6994;49.752;6.094;2023-08-01T10:43:45;20.70;99.90
13848;DHT22;6994;49.752;6.094;2023-08-01T10:46:12;20.50;99.90
13848;DHT22;6994;49.752;6.094;2023-08-01T10:48:52;20.20;99.90
13848;DHT22;6994;49.752;6.094;2023-08-01T10:51:15;20.10;99.90
13848;DHT22;6994;49.752;6.094;2023-08-01T10:53:42;20.00;99.90
13848;DHT22;6994;49.752;6.094;2023-08-01T10:56:16;20.10;99.90
13848;DHT22;6994;49.752;6.094;2023-08-01T10:58:43;20.60;99.90
13848;DHT22;6994;49.752;6.094;2023-08-01T11:01:11;20.80;99.90
13848;DHT22;6994;49.752;6.094;2023-08-01T11:03:39;21.00;99.90
13848;DHT22;6994;49.752;6.094;2023-08-01T11:06:07;21.30;99.90
13848;DHT22;6994;49.752;6.094;2023-08-01T11:08:38;21.30;99.90
13848;DHT22;6994;49.752;6.094;2023-08-01T11:11:05;21.60;99.90
13848;DHT22;6994;49.752;6.094;2023-08-01T11:13:32;21.80;99.90
13848;DHT22;6994;49.752;6.094;2023-08-01T11:15:59;22.00;99.90
13848;DHT22;6994;49.752;6.094;2023-08-01T11:18:26;22.00;99.90
13848;DHT22;6994;49.752;6.094;2023-08-01T11:20:53;22.00;99.90
13848;DHT22;6994;49.752;6.094;2023-08-01T11:23:27;22.00;99.90
13848;DHT22;6994;49.752;6.094;2023-08-01T11:25:48;22.10;99.90
13848;DHT22;6994;49.752;6.094;2023-08-01T11:28:15;22.10;99.90
13848;DHT22;6994;49.752;6.094;2023-08-01T11:30:42;22.30;99.90
13848;DHT22;6994;49.752;6.094;2023-08-01T11:33:22;22.60;99.90
13848;DHT22;6994;49.752;6.094;2023-08-01T11:35:52;22.90;99.90
13848;DHT22;6994;49.752;6.094;2023-08-01T11:38:19;23.50;99.90
13848;DHT22;6994;49.752;6.094;2023-08-01T11:40:46;23.90;99.90
13848;DHT22;6994;49.752;6.094;2023-08-01T11:43:13;24.10;99.90
13848;DHT22;6994;49.752;6.094;2023-08-01T11:45:49;24.50;99.90
13848;DHT22;6994;49.752;6.094;2023-08-01T11:48:17;25.30;99.90
13848;DHT22;6994;49.752;6.094;2023-08-01T11:50:44;25.30;99.90
13848;DHT22;6994;49.752;6.094;2023-08-01T11:53:18;25.70;99.90
13848;DHT22;6994;49.752;6.094;2023-08-01T11:55:44;25.80;99.90
13848;DHT22;6994;49.752;6.094;2023-08-01T11:58:11;26.10;99.90
13848;DHT22;6994;49.752;6.094;2023-08-01T12:00:38;26.40;99.90
13848;DHT22;6994;49.752;6.094;2023-08-01T12:03:09;27.10;99.90
13848;DHT22;6994;49.752;6.094;2023-08-01T12:05:33;27.60;99.90
13848;DHT22;6994;49.752;6.094;2023-08-01T12:08:13;27.80;99.80
13848;DHT22;6994;49.752;6.094;2023-08-01T12:10:43;27.20;99.90
13848;DHT22;6994;49.752;6.094;2023-08-01T12:13:22;27.00;99.90
13848;DHT22;6994;49.752;6.094;2023-08-01T12:15:49;27.00;99.90
13848;DHT22;6994;49.752;6.094;2023-08-01T12:20:48;26.40;99.20
13848;DHT22;6994;49.752;6.094;2023-08-01T12:23:16;26.00;99.00
13848;DHT22;6994;49.752;6.094;2023-08-01T12:25:44;26.00;99.90
13848;DHT22;6994;49.752;6.094;2023-08-01T12:28:11;26.10;99.90
13848;DHT22;6994;49.752;6.094;2023-08-01T12:30:41;25.90;98.60
13848;DHT22;6994;49.752;6.094;2023-08-01T12:33:08;25.40;99.80
13848;DHT22;6994;49.752;6.094;2023-08-01T12:35:39;25.00;99.90
13848;DHT22;6994;49.752;6.094;2023-08-01T12:38:02;24.40;99.90
13848;DHT22;6994;49.752;6.094;2023-08-01T12:40:30;23.90;99.90
13848;DHT22;6994;49.752;6.094;2023-08-01T12:42:57;23.70;99.90
13848;DHT22;6994;49.752;6.094;2023-08-01T12:45:24;23.90;99.90
13848;DHT22;6994;49.752;6.094;2023-08-01T12:47:51;23.80;99.90
13848;DHT22;6994;49.752;6.094;2023-08-01T12:50:18;24.00;99.90
13848;DHT22;6994;49.752;6.094;2023-08-01T12:52:46;23.70;99.90
13848;DHT22;6994;49.752;6.094;2023-08-01T12:55:13;23.40;99.90
13848;DHT22;6994;49.752;6.094;2023-08-01T12:57:40;22.70;99.90
13848;DHT22;6994;49.752;6.094;2023-08-01T13:00:08;20.70;99.90
13848;DHT22;6994;49.752;6.094;2023-08-01T13:02:36;20.70;99.90
13848;DHT22;6994;49.752;6.094;2023-08-01T13:05:03;19.90;99.90
13848;DHT22;6994;49.752;6.094;2023-08-01T13:07:30;19.40;99.90
13848;DHT22;6994;49.752;6.094;2023-08-01T13:09:57;19.10;99.90
13848;DHT22;6994;49.752;6.094;2023-08-01T13:12:24;19.00;99.90
13848;DHT22;6994;49.752;6.094;2023-08-01T13:14:51;19.10;99.90
13848;DHT22;6994;49.752;6.094;2023-08-01T13:17:18;19.40;99.90
13848;DHT22;6994;49.752;6.094;2023-08-01T13:19:46;19.50;99.90
13848;DHT22;6994;49.752;6.094;2023-08-01T13:22:13;19.80;99.90
13848;DHT22;6994;49.752;6.094;2023-08-01T13:24:40;20.20;99.90
13848;DHT22;6994;49.752;6.094;2023-08-01T13:27:07;20.70;99.90
13848;DHT22;6994;49.752;6.094;2023-08-01T13:29:35;21.50;99.90
13848;DHT22;6994;49.752;6.094;2023-08-01T13:32:02;23.40;99.90
13848;DHT22;6994;49.752;6.094;2023-08-01T13:34:30;23.40;99.90
13848;DHT22;6994;49.752;6.094;2023-08-01T13:36:57;24.10;99.90
13848;DHT22;6994;49.752;6.094;2023-08-01T13:39:24;25.10;99.90
13848;DHT22;6994;49.752;6.094;2023-08-01T13:41:51;26.20;99.90
13848;DHT22;6994;49.752;6.094;2023-08-01T13:44:19;27.20;99.90
13848;DHT22;6994;49.752;6.094;2023-08-01T13:46:46;28.80;98.00
13848;DHT22;6994;49.752;6.094;2023-08-01T13:49:13;29.30;95.90
13848;DHT22;6994;49.752;6.094;2023-08-01T13:51:40;29.70;94.10
13848;DHT22;6994;49.752;6.094;2023-08-01T13:54:07;29.10;94.90
13848;DHT22;6994;49.752;6.094;2023-08-01T13:56:35;28.40;95.50
13848;DHT22;6994;49.752;6.094;2023-08-01T13:59:02;27.60;96.00
13848;DHT22;6994;49.752;6.094;2023-08-01T14:01:29;26.90;97.40
13848;DHT22;6994;49.752;6.094;2023-08-01T14:03:56;26.20;97.50
13848;DHT22;6994;49.752;6.094;2023-08-01T14:06:23;25.60;98.20
13848;DHT22;6994;49.752;6.094;2023-08-01T14:08:51;24.90;99.70
13848;DHT22;6994;49.752;6.094;2023-08-01T14:11:18;24.30;99.90
13848;DHT22;6994;49.752;6.094;2023-08-01T14:13:45;23.80;99.90
13848;DHT22;6994;49.752;6.094;2023-08-01T14:16:12;23.50;99.90
13848;DHT22;6994;49.752;6.094;2023-08-01T14:18:39;23.30;99.90
13848;DHT22;6994;49.752;6.094;2023-08-01T14:21:07;23.20;99.90
13848;DHT22;6994;49.752;6.094;2023-08-01T14:23:34;23.00;99.90
13848;DHT22;6994;49.752;6.094;2023-08-01T14:26:01;22.70;99.90
13848;DHT22;6994;49.752;6.094;2023-08-01T14:28:28;22.30;99.90
13848;DHT22;6994;49.752;6.094;2023-08-01T14:30:55;21.80;99.90
13848;DHT22;6994;49.752;6.094;2023-08-01T14:33:23;21.50;99.90
13848;DHT22;6994;49.752;6.094;2023-08-01T14:35:51;21.30;99.90
13848;DHT22;6994;49.752;6.094;2023-08-01T14:38:19;21.10;99.90
13848;DHT22;6994;49.752;6.094;2023-08-01T14:40:47;21.10;99.90
13848;DHT22;6994;49.752;6.094;2023-08-01T14:43:14;21.00;99.90
13848;DHT22;6994;49.752;6.094;2023-08-01T14:45:41;20.80;99.90
13848;DHT22;6994;49.752;6.094;2023-08-01T14:48:08;20.70;99.90
13848;DHT22;6994;49.752;6.094;2023-08-01T14:50:37;20.50;99.90
13848;DHT22;6994;49.752;6.094;2023-08-01T14:53:03;20.40;99.90
13848;DHT22;6994;49.752;6.094;2023-08-01T14:55:30;20.00;99.90
13848;DHT22;6994;49.752;6.094;2023-08-01T14:57:57;19.50;99.90
13848;DHT22;6994;49.752;6.094;2023-08-01T15:00:24;19.00;99.90
13848;DHT22;6994;49.752;6.094;2023-08-01T15:02:52;18.30;99.90
13848;DHT22;6994;49.752;6.094;2023-08-01T15:05:20;18.20;99.90
13848;DHT22;6994;49.752;6.094;2023-08-01T15:07:48;18.30;99.90
13848;DHT22;6994;49.752;6.094;2023-08-01T15:10:16;18.60;99.90
13848;DHT22;6994;49.752;6.094;2023-08-01T15:12:44;19.00;99.90
13848;DHT22;6994;49.752;6.094;2023-08-01T15:15:12;19.70;99.90
13848;DHT22;6994;49.752;6.094;2023-08-01T15:17:39;19.60;99.90
13848;DHT22;6994;49.752;6.094;2023-08-01T15:20:06;20.60;99.90
13848;DHT22;6994;49.752;6.094;2023-08-01T15:22:34;21.60;99.90
13848;DHT22;6994;49.752;6.094;2023-08-01T15:25:01;23.00;99.90
13848;DHT22;6994;49.752;6.094;2023-08-01T15:27:28;23.60;99.90
13848;DHT22;6994;49.752;6.094;2023-08-01T15:29:55;23.80;99.90
13848;DHT22;6994;49.752;6.094;2023-08-01T15:32:22;23.90;99.90
13848;DHT22;6994;49.752;6.094;2023-08-01T15:34:50;23.90;99.90
13848;DHT22;6994;49.752;6.094;2023-08-01T15:37:17;24.50;99.90
13848;DHT22;6994;49.752;6.094;2023-08-01T15:39:44;24.50;99.90
13848;DHT22;6994;49.752;6.094;2023-08-01T15:42:11;24.50;99.90
13848;DHT22;6994;49.752;6.094;2023-08-01T15:44:38;24.20;99.90
13848;DHT22;6994;49.752;6.094;2023-08-01T15:47:06;23.80;99.90
13848;DHT22;6994;49.752;6.094;2023-08-01T15:49:34;23.80;99.90